• Join FlightAware (Why Join?)
  • Login
  • US Flag 
07:35PM EST


 

Airport Tracker/Info


-or-


 

Live Flight TrackerFlight Track Log ✈ EJM19 ✈ 13-May-2013 ✈ KTEB - KICT

Flight Track Log - Related Links

Times and Time Zones

All times are in EDT time to prevent confusion due to time zone crossing. See the EJM19 flight status page for this flight to view local times or setup timezone preferences in your user account.

Time Position Orientation Groundspeed Altitude Reporting Facility
EDT Latitude Longitude Course Direction KTS MPH feet Rate Location/Type
08:33PM 40.8833 -74.0333 268° West 188 216 2,200  Level New York TRACON
08:33PM 40.9167 -74.0833 311° West 209 241 3,900 1,920 Climbing New York TRACON
08:35PM 40.9000 -74.1667 255° West 248 285 6,100 1,920 Climbing New York TRACON
08:36PM 40.9000 -74.2667 270° West 260 299 8,000 1,980 Climbing New York TRACON
08:37PM 40.9000 -74.3667 270° West 278 320 10,100 2,220 Climbing New York TRACON
08:38PM 40.8266 -74.7327 268° West  Level Estimated
08:38PM 40.9167 -74.4833 281° West 327 376 12,500  Level New York TRACON
08:39PM 40.9122 -74.5958 267° West 346 398 16,300 2,100 Climbing New York Center
08:40PM 40.9136 -74.7389 271° West 352 405 17,000 600 Climbing New York Center
08:41PM 40.9161 -74.8542 272° West 357 411 17,500 1,380 Climbing New York Center
08:42PM 40.9158 -74.9806 270° West 357 411 19,800 2,520 Climbing New York Center
08:43PM 40.9167 -75.1261 270° West 371 427 22,500 2,100 Climbing New York Center
08:44PM 40.8969 -75.2650 259° West 376 433 24,000 720 Climbing New York Center
08:45PM 40.8664 -75.4056 254° West 392 451 24,000 1,020 Level New York Center
08:46PM 40.8336 -75.5486 253° West 397 457 26,100 2,160 Climbing New York Center
08:47PM 40.8011 -75.6836 252° West 397 457 28,300 2,160 Climbing New York Center
08:48PM 40.7867 -75.8250 262° West 397 457 30,500 2,160 Climbing New York Center
08:49PM 40.7789 -75.9614 266° West 387 445 32,700 1,980 Climbing New York Center
08:50PM 40.7728 -76.0953 267° West 376 433 34,600 1,620 Climbing New York Center
08:51PM 40.7650 -76.2236 265° West 366 421 36,000 1,440 Climbing New York Center
08:52PM 40.7611 -76.3492 268° West 361 415 37,500 960 Climbing New York Center
08:53PM 40.7531 -76.4772 265° West 356 410 38,000 480 Climbing New York Center
08:54PM 40.7444 -76.6081 265° West 356 410 38,500 480 Climbing New York Center
08:55PM 40.7378 -76.7444 266° West 369 425 39,000 480 Climbing New York Center
08:56PM 40.7306 -76.8864 266° West 381 438 39,500 480 Climbing New York Center
08:57PM 40.7228 -77.0308 266° West 386 444 40,000 240 Climbing New York Center
08:58PM 40.7153 -77.1753 266° West 391 450 40,000  Level New York Center
08:59PM 40.7050 -77.3250 265° West 403 464 40,000  Level New York Center
09:01PM 40.6861 -77.6450 266° West 436 502 40,000  Level Cleveland Center
09:02PM 40.6753 -77.8014 265° West 436 502 40,000  Level Cleveland Center
09:03PM 40.6644 -77.9581 265° West 436 502 40,000  Level Cleveland Center
09:04PM 40.6556 -78.1172 266° West 441 507 40,000  Level Cleveland Center
09:05PM 40.6442 -78.2736 265° West 441 507 40,000  Level Cleveland Center
09:06PM 40.6306 -78.4328 264° West 441 507 40,000  Level Cleveland Center
09:07PM 40.6211 -78.5917 266° West 441 507 40,000  Level Cleveland Center
09:08PM 40.6111 -78.7533 265° West 441 507 40,000  Level Cleveland Center
09:09PM 40.5989 -78.9094 264° West 441 507 40,000  Level Cleveland Center
09:10PM 40.5889 -79.0819 266° West 441 507 40,000  Level Cleveland Center
09:11PM 40.5742 -79.2300 263° West 441 507 40,000  Level Cleveland Center
09:12PM 40.5614 -79.4025 264° West 441 507 40,000  Level Cleveland Center
09:13PM 40.5503 -79.5558 265° West 441 507 40,000  Level Cleveland Center
09:14PM 40.5369 -79.7144 264° West 441 507 40,000  Level Cleveland Center
09:15PM 40.5236 -79.8731 264° West 441 507 40,000  Level Cleveland Center
09:16PM 40.5097 -80.0150 263° West 447 514 40,000  Level Cleveland Center
09:17PM 40.4981 -80.1764 265° West 447 514 40,000  Level Cleveland Center
09:18PM 40.4839 -80.3292 263° West 440 506 40,000  Level Cleveland Center
09:19PM 40.4717 -80.4847 264° West 440 506 40,000  Level Cleveland Center
09:20PM 40.4592 -80.6431 264° West 440 506 40,000  Level Cleveland Center
09:21PM 40.4306 -80.9161 262° West 439 505 40,000  Level Indianapolis Center
09:22PM 40.4150 -81.0769 263° West 440 506 40,000  Level Indianapolis Center
09:23PM 40.4003 -81.2361 263° West 437 503 40,000  Level Indianapolis Center
09:24PM 40.3847 -81.3958 263° West 436 502 40,000  Level Indianapolis Center
09:25PM 40.3706 -81.5553 263° West 435 501 40,000  Level Indianapolis Center
09:26PM 40.3539 -81.7150 262° West 436 502 40,000  Level Indianapolis Center
09:28PM 40.3392 -81.8731 263° West 432 497 40,000  Level Indianapolis Center
09:29PM 40.3206 -82.0578 263° West 433 498 40,000  Level Indianapolis Center
09:30PM 40.3033 -82.2153 262° West 433 498 40,000  Level Indianapolis Center
09:31PM 40.2872 -82.3731 262° West 432 497 40,000  Level Indianapolis Center
09:32PM 40.2711 -82.5292 262° West 428 493 40,000  Level Indianapolis Center
09:33PM 40.2542 -82.6867 262° West 431 496 40,000  Level Indianapolis Center
09:34PM 40.2350 -82.8531 261° West 433 498 40,000  Level Indianapolis Center
09:35PM 40.2183 -83.0108 262° West 437 503 40,000  Level Indianapolis Center
09:36PM 40.2000 -83.1692 261° West 439 505 40,000  Level Indianapolis Center
09:37PM 40.1825 -83.3294 262° West 444 511 40,000  Level Indianapolis Center
09:38PM 40.1642 -83.4889 261° West 444 511 40,000  Level Indianapolis Center
09:39PM 40.1458 -83.6497 262° West 448 516 40,000  Level Indianapolis Center
09:40PM 40.1269 -83.8119 261° West 451 519 40,000  Level Indianapolis Center
09:41PM 40.1069 -83.9744 261° West 452 520 40,000  Level Indianapolis Center
09:42PM 40.0836 -84.1667 261° West 457 526 40,000 240 Level Indianapolis Center
09:43PM 40.0633 -84.3289 261° West 452 520 40,600 780 Climbing Indianapolis Center
09:44PM 40.0453 -84.4856 261° West 437 503 41,600 960 Climbing Indianapolis Center
09:45PM 40.0256 -84.6367 260° West 424 488 42,600 660 Climbing Indianapolis Center
09:46PM 40.0064 -84.7831 260° West 409 471 43,000 180 Climbing Indianapolis Center
09:47PM 39.9906 -84.9108 261° West 407 468 43,000  Level Indianapolis Center
09:48PM 39.9678 -85.0869 260° West 412 474 43,000  Level Indianapolis Center
09:49PM 39.9489 -85.2344 261° West 415 478 43,000  Level Indianapolis Center
09:50PM 39.9289 -85.3822 260° West 416 479 43,000  Level Indianapolis Center
09:51PM 39.9097 -85.5294 260° West 415 478 43,000  Level Indianapolis Center
09:52PM 39.8900 -85.6783 260° West 420 483 43,000  Level Indianapolis Center
09:53PM 39.8686 -85.8281 260° West 421 484 43,000  Level Indianapolis Center
09:54PM 39.8486 -85.9781 260° West 424 488 43,000  Level Indianapolis Center
09:55PM 39.8242 -86.1567 260° West 424 488 43,000  Level Indianapolis Center
09:56PM 39.8044 -86.2892 259° West 424 488 43,000  Level Indianapolis Center
09:57PM 39.7831 -86.4456 260° West 422 486 43,000  Level Indianapolis Center
09:58PM 39.7619 -86.5967 260° West 427 491 43,000  Level Indianapolis Center
09:59PM 39.7400 -86.7469 259° West 426 490 43,000  Level Indianapolis Center
10:00PM 39.7183 -86.8986 260° West 430 495 43,000  Level Indianapolis Center
10:01PM 39.6906 -87.0814 259° West 432 497 43,000  Level Indianapolis Center
10:02PM 39.6689 -87.2350 260° West 434 499 43,000  Level Indianapolis Center
10:03PM 39.6461 -87.3881 259° West 434 499 43,000  Level Indianapolis Center
10:04PM 39.6222 -87.5422 259° West 437 503 43,000  Level Indianapolis Center
10:05PM 39.5969 -87.6950 258° West 436 502 43,000  Level Indianapolis Center
10:06PM 39.5736 -87.8478 259° West 434 499 43,000  Level Indianapolis Center
10:07PM 39.5506 -88.0022 259° West 437 503 43,000  Level Indianapolis Center
10:08PM 39.5250 -88.1611 258° West 437 503 43,000 240 Level Kansas City Center
10:09PM 39.5006 -88.3142 258° West 436 502 43,500  Climbing Kansas City Center
10:10PM 39.4764 -88.4683 259° West 436 502 43,000 -300 Descending Kansas City Center
10:11PM 39.4506 -88.6217 258° West 440 506 43,000  Level Kansas City Center
10:12PM 39.4264 -88.7778 259° West 442 509 43,000  Level Kansas City Center
10:13PM 39.4008 -88.9208 257° West 442 509 43,000  Level Kansas City Center
10:14PM 39.3767 -89.0761 259° West 442 509 43,000  Level Kansas City Center
10:15PM 39.3450 -89.2617 258° West 443 510 43,000  Level Kansas City Center
10:16PM 39.3194 -89.4161 258° West 441 507 43,000  Level Kansas City Center
10:17PM 39.2925 -89.5714 257° West 444 511 43,000  Level Kansas City Center
10:18PM 39.2661 -89.7253 258° West 443 510 43,000  Level Kansas City Center
10:19PM 39.2394 -89.8814 258° West 445 512 43,000  Level Kansas City Center
10:21PM 39.2131 -90.0358 258° West 446 513 43,000  Level Kansas City Center
10:22PM 39.1856 -90.1917 257° West 448 516 43,000  Level Kansas City Center
10:23PM 39.1525 -90.3775 257° West 448 516 43,000  Level Kansas City Center
10:24PM 39.1253 -90.5319 257° West 448 516 43,000  Level Kansas City Center
10:25PM 39.0975 -90.6847 257° West 445 512 43,000  Level Kansas City Center
10:26PM 39.0708 -90.8389 257° West 444 511 43,000  Level Kansas City Center
10:27PM 39.0414 -90.9939 256° West 448 516 43,000  Level Kansas City Center
10:28PM 39.0131 -91.1497 257° West 450 518 43,000  Level Kansas City Center
10:29PM 38.9842 -91.3042 257° West 449 517 43,000  Level Kansas City Center
10:30PM 38.9492 -91.4906 256° West 448 516 43,000  Level Kansas City Center
10:31PM 38.9192 -91.6472 256° West 451 519 43,000  Level Kansas City Center
10:32PM 38.8900 -91.7958 256° West 450 518 43,000  Level Kansas City Center
10:33PM 38.8600 -91.9542 256° West 454 522 43,000  Level Kansas City Center
10:34PM 38.8292 -92.1106 256° West 454 522 43,000  Level Kansas City Center
10:35PM 38.7983 -92.2667 256° West 453 521 43,000  Level Kansas City Center
10:36PM 38.7603 -92.4536 255° West 453 521 43,000  Level Kansas City Center
10:37PM 38.7297 -92.6072 256° West 449 517 43,000  Level Kansas City Center
10:38PM 38.6978 -92.7650 256° West 454 522 43,000  Level Kansas City Center
10:39PM 38.6664 -92.9236 256° West 459 528 43,000  Level Kansas City Center
10:40PM 38.6339 -93.0811 255° West 459 528 43,000  Level Kansas City Center
10:41PM 38.6022 -93.2381 256° West 458 527 43,000  Level Kansas City Center
10:42PM 38.5703 -93.3953 255° West 458 527 43,000  Level Kansas City Center
10:43PM 38.5364 -93.5539 255° West 460 529 43,000  Level Kansas City Center
10:44PM 38.5039 -93.7106 255° West 460 529 43,000  Level Kansas City Center
10:45PM 38.4628 -93.8994 255° West 460 529 43,000  Level Kansas City Center
10:46PM 38.4297 -94.0567 255° West 460 529 43,000  Level Kansas City Center
10:47PM 38.3969 -94.2100 255° West 463 533 43,000  Level Kansas City Center
10:48PM 38.3636 -94.3594 254° West 459 528 43,000  Level Kansas City Center
10:49PM 38.3256 -94.5353 255° West 460 529 43,000  Level Kansas City Center
10:50PM 38.2917 -94.6864 254° West 461 531 43,000  Level Kansas City Center
10:51PM 38.2425 -94.8289 246° West 464 534 43,000  Level Kansas City Center
10:52PM 38.1722 -94.9892 241° Southwest 462 532 43,000 -420 Level Kansas City Center
10:53PM 38.1111 -95.1303 241° Southwest 470 541 42,200 -1,200 Descending Kansas City Center
10:54PM 38.0422 -95.2942 242° Southwest 470 541 40,600 -1,560 Descending Kansas City Center
10:55PM 37.9844 -95.4342 242° Southwest 468 539 39,100 -1,440 Descending Kansas City Center
10:56PM 37.9514 -95.5858 255° West 468 539 37,700 -1,380 Descending Kansas City Center
10:57PM 37.9350 -95.7408 262° West 465 535 36,300 -1,620 Descending Kansas City Center
10:58PM 37.9172 -95.9306 263° West 457 526 34,500 -1,680 Descending Kansas City Center
10:59PM 37.9017 -96.0869 263° West 451 519 33,000 -1,560 Descending Kansas City Center
11:00PM 37.8892 -96.2178 263° West 444 511 31,400 -1,740 Descending Kansas City Center
11:01PM 37.8742 -96.3722 263° West 442 509 29,500 -2,040 Descending Kansas City Center
11:02PM 37.8581 -96.5317 263° West 454 522 27,300 -2,460 Descending Kansas City Center
11:03PM 37.8386 -96.7189 263° West 448 516 24,500 -2,640 Descending Kansas City Center
11:04PM 37.8231 -96.8689 263° West 433 498 22,000 -2,880 Descending Kansas City Center
11:05PM 37.8008 -97.0081 259° West 408 470 18,700 -3,540 Descending Kansas City Center
11:06PM 37.7817 -97.1314 259° West 366 421 14,900 -3,900 Descending Kansas City Center
11:07PM 37.7661 -97.2300 259° West 289 333 10,800 -4,140 Descending Kansas City Center
11:08PM 37.7514 -97.3153 258° West 227 261 6,700 -3,900 Descending Kansas City Center
11:09PM 37.7308 -97.3847 249° West 207 238 3,100 -2,400 Descending Kansas City Center
11:10PM 37.6908 -97.4042 201° Southwest 113 130 1,900 -840 Descending Kansas City Center
11:11PM 37.6667 -97.4158 201° Southwest 96 110 1,500 -480 Descending Kansas City Center
11:14PM 37.6499 -97.4331 238° Southwest  Level Estimated
11:21PM 37.6499 -97.4331 238° Southwest  Level Estimated